sensor_id;sensor_type;location;lat;lon;timestamp;temperature;humidity
47414;DHT22;33163;0.000;0.000;2023-04-09T00:01:01;19.30;53.40
47414;DHT22;33163;0.000;0.000;2023-04-09T00:03:28;19.30;53.40
47414;DHT22;33163;0.000;0.000;2023-04-09T00:05:55;19.30;53.40
47414;DHT22;33163;0.000;0.000;2023-04-09T00:08:23;19.30;53.40
47414;DHT22;33163;0.000;0.000;2023-04-09T00:10:50;19.30;53.50
47414;DHT22;33163;0.000;0.000;2023-04-09T00:13:18;19.30;53.50
47414;DHT22;33163;0.000;0.000;2023-04-09T00:15:45;19.30;53.50
47414;DHT22;33163;0.000;0.000;2023-04-09T00:18:12;19.30;53.50
47414;DHT22;33163;0.000;0.000;2023-04-09T00:20:38;19.20;53.40
47414;DHT22;33163;0.000;0.000;2023-04-09T00:23:05;19.30;53.50
47414;DHT22;33163;0.000;0.000;2023-04-09T00:25:34;19.20;53.40
47414;DHT22;33163;0.000;0.000;2023-04-09T00:28:01;19.20;53.40
47414;DHT22;33163;0.000;0.000;2023-04-09T00:30:28;19.30;53.50
47414;DHT22;33163;0.000;0.000;2023-04-09T00:32:55;19.20;53.50
47414;DHT22;33163;0.000;0.000;2023-04-09T00:35:22;19.20;53.40
47414;DHT22;33163;0.000;0.000;2023-04-09T00:37:49;19.20;53.40
47414;DHT22;33163;0.000;0.000;2023-04-09T00:40:16;19.20;53.50
47414;DHT22;33163;0.000;0.000;2023-04-09T00:42:44;19.20;53.40
47414;DHT22;33163;0.000;0.000;2023-04-09T00:45:11;19.20;53.50
47414;DHT22;33163;0.000;0.000;2023-04-09T00:47:38;19.20;53.50
47414;DHT22;33163;0.000;0.000;2023-04-09T00:50:05;19.20;53.50
47414;DHT22;33163;0.000;0.000;2023-04-09T00:52:32;19.20;53.50
47414;DHT22;33163;0.000;0.000;2023-04-09T00:55:00;19.20;53.40
47414;DHT22;33163;0.000;0.000;2023-04-09T00:57:27;19.20;53.50
47414;DHT22;33163;0.000;0.000;2023-04-09T00:59:55;19.20;54.10
47414;DHT22;33163;0.000;0.000;2023-04-09T01:02:22;19.20;53.40
47414;DHT22;33163;0.000;0.000;2023-04-09T01:04:49;19.20;53.40
47414;DHT22;33163;0.000;0.000;2023-04-09T01:07:21;19.20;53.50
47414;DHT22;33163;0.000;0.000;2023-04-09T01:09:56;19.20;53.40
47414;DHT22;33163;0.000;0.000;2023-04-09T01:12:32;19.20;53.50
47414;DHT22;33163;0.000;0.000;2023-04-09T01:15:04;19.20;53.50
47414;DHT22;33163;0.000;0.000;2023-04-09T01:17:34;19.10;53.40
47414;DHT22;33163;0.000;0.000;2023-04-09T01:20:07;19.10;53.40
47414;DHT22;33163;0.000;0.000;2023-04-09T01:22:58;19.10;53.40
47414;DHT22;33163;0.000;0.000;2023-04-09T01:25:39;19.10;53.40
47414;DHT22;33163;0.000;0.000;2023-04-09T01:28:16;19.10;53.40
47414;DHT22;33163;0.000;0.000;2023-04-09T01:30:53;19.10;53.40
47414;DHT22;33163;0.000;0.000;2023-04-09T01:33:23;19.10;54.10
47414;DHT22;33163;0.000;0.000;2023-04-09T01:35:51;19.10;53.30
47414;DHT22;33163;0.000;0.000;2023-04-09T01:38:19;19.10;54.00
47414;DHT22;33163;0.000;0.000;2023-04-09T01:40:47;19.10;53.40
47414;DHT22;33163;0.000;0.000;2023-04-09T01:43:17;19.10;53.40
47414;DHT22;33163;0.000;0.000;2023-04-09T01:45:44;19.10;53.40
47414;DHT22;33163;0.000;0.000;2023-04-09T01:48:13;19.10;53.30
47414;DHT22;33163;0.000;0.000;2023-04-09T01:50:40;19.10;53.30
47414;DHT22;33163;0.000;0.000;2023-04-09T01:53:08;19.10;53.30
47414;DHT22;33163;0.000;0.000;2023-04-09T01:55:34;19.00;53.30
47414;DHT22;33163;0.000;0.000;2023-04-09T01:58:01;19.00;53.30
47414;DHT22;33163;0.000;0.000;2023-04-09T02:00:34;19.00;53.30
47414;DHT22;33163;0.000;0.000;2023-04-09T02:03:04;19.00;53.20
47414;DHT22;33163;0.000;0.000;2023-04-09T02:05:36;19.00;53.20
47414;DHT22;33163;0.000;0.000;2023-04-09T02:08:06;19.00;53.30
47414;DHT22;33163;0.000;0.000;2023-04-09T02:10:34;19.00;53.30
47414;DHT22;33163;0.000;0.000;2023-04-09T02:13:04;19.00;53.20
47414;DHT22;33163;0.000;0.000;2023-04-09T02:15:33;19.00;53.20
47414;DHT22;33163;0.000;0.000;2023-04-09T02:18:01;19.00;53.20
47414;DHT22;33163;0.000;0.000;2023-04-09T02:20:28;19.00;53.20
47414;DHT22;33163;0.000;0.000;2023-04-09T02:22:55;19.00;53.30
47414;DHT22;33163;0.000;0.000;2023-04-09T02:25:22;19.00;53.30
47414;DHT22;33163;0.000;0.000;2023-04-09T02:27:50;19.00;53.30
47414;DHT22;33163;0.000;0.000;2023-04-09T02:30:17;19.00;53.30
47414;DHT22;33163;0.000;0.000;2023-04-09T02:32:45;18.90;53.20
47414;DHT22;33163;0.000;0.000;2023-04-09T02:35:11;19.00;53.30
47414;DHT22;33163;0.000;0.000;2023-04-09T02:37:39;19.00;53.30
47414;DHT22;33163;0.000;0.000;2023-04-09T02:40:07;18.90;53.20
47414;DHT22;33163;0.000;0.000;2023-04-09T02:42:34;18.90;53.20
47414;DHT22;33163;0.000;0.000;2023-04-09T02:45:00;18.90;53.20
47414;DHT22;33163;0.000;0.000;2023-04-09T02:47:27;18.90;53.20
47414;DHT22;33163;0.000;0.000;2023-04-09T02:49:56;18.90;53.20
47414;DHT22;33163;0.000;0.000;2023-04-09T02:52:22;18.90;53.20
47414;DHT22;33163;0.000;0.000;2023-04-09T02:54:50;18.90;53.20
47414;DHT22;33163;0.000;0.000;2023-04-09T02:57:17;18.90;53.20
47414;DHT22;33163;0.000;0.000;2023-04-09T02:59:45;18.90;53.20
47414;DHT22;33163;0.000;0.000;2023-04-09T03:02:12;18.90;53.20
47414;DHT22;33163;0.000;0.000;2023-04-09T03:04:38;18.90;53.10
47414;DHT22;33163;0.000;0.000;2023-04-09T03:07:06;18.90;53.20
47414;DHT22;33163;0.000;0.000;2023-04-09T03:09:33;18.90;53.20
47414;DHT22;33163;0.000;0.000;2023-04-09T03:12:00;18.90;53.10
47414;DHT22;33163;0.000;0.000;2023-04-09T03:14:27;18.90;53.10
47414;DHT22;33163;0.000;0.000;2023-04-09T03:16:54;18.90;53.10
47414;DHT22;33163;0.000;0.000;2023-04-09T03:19:21;18.90;53.10
47414;DHT22;33163;0.000;0.000;2023-04-09T03:21:47;18.80;53.10
47414;DHT22;33163;0.000;0.000;2023-04-09T03:24:17;18.90;53.10
47414;DHT22;33163;0.000;0.000;2023-04-09T03:26:43;18.80;53.10
47414;DHT22;33163;0.000;0.000;2023-04-09T03:29:10;18.80;53.00
47414;DHT22;33163;0.000;0.000;2023-04-09T03:31:37;18.80;53.00
47414;DHT22;33163;0.000;0.000;2023-04-09T03:34:04;18.80;53.00
47414;DHT22;33163;0.000;0.000;2023-04-09T03:36:30;18.80;53.00
47414;DHT22;33163;0.000;0.000;2023-04-09T03:38:57;18.80;53.00
47414;DHT22;33163;0.000;0.000;2023-04-09T03:41:26;18.80;53.00
47414;DHT22;33163;0.000;0.000;2023-04-09T03:43:53;18.80;53.10
47414;DHT22;33163;0.000;0.000;2023-04-09T03:46:19;18.80;53.10
47414;DHT22;33163;0.000;0.000;2023-04-09T03:48:46;18.80;53.10
47414;DHT22;33163;0.000;0.000;2023-04-09T03:51:13;18.80;53.10
47414;DHT22;33163;0.000;0.000;2023-04-09T03:53:40;18.80;53.10
47414;DHT22;33163;0.000;0.000;2023-04-09T03:56:08;18.80;53.10
47414;DHT22;33163;0.000;0.000;2023-04-09T03:58:36;18.80;53.10
47414;DHT22;33163;0.000;0.000;2023-04-09T04:01:03;18.80;53.10
47414;DHT22;33163;0.000;0.000;2023-04-09T04:03:30;18.80;53.20
47414;DHT22;33163;0.000;0.000;2023-04-09T04:05:59;18.80;53.20
47414;DHT22;33163;0.000;0.000;2023-04-09T04:08:26;18.80;53.20
47414;DHT22;33163;0.000;0.000;2023-04-09T04:10:53;18.70;53.20
47414;DHT22;33163;0.000;0.000;2023-04-09T04:13:19;18.80;53.70
47414;DHT22;33163;0.000;0.000;2023-04-09T04:15:48;18.80;53.30
47414;DHT22;33163;0.000;0.000;2023-04-09T04:18:14;18.80;53.30
47414;DHT22;33163;0.000;0.000;2023-04-09T04:20:41;18.70;53.30
47414;DHT22;33163;0.000;0.000;2023-04-09T04:23:08;18.70;53.30
47414;DHT22;33163;0.000;0.000;2023-04-09T04:25:34;18.70;53.40
47414;DHT22;33163;0.000;0.000;2023-04-09T04:28:01;18.70;53.30
47414;DHT22;33163;0.000;0.000;2023-04-09T04:30:28;18.70;53.40
47414;DHT22;33163;0.000;0.000;2023-04-09T04:32:56;18.70;53.40
47414;DHT22;33163;0.000;0.000;2023-04-09T04:35:23;18.70;53.40
47414;DHT22;33163;0.000;0.000;2023-04-09T04:37:49;18.70;53.40
47414;DHT22;33163;0.000;0.000;2023-04-09T04:40:16;18.70;53.50
47414;DHT22;33163;0.000;0.000;2023-04-09T04:42:43;18.70;53.50
47414;DHT22;33163;0.000;0.000;2023-04-09T04:45:10;18.70;53.60
47414;DHT22;33163;0.000;0.000;2023-04-09T04:47:37;18.70;53.60
47414;DHT22;33163;0.000;0.000;2023-04-09T04:50:07;18.70;53.60
47414;DHT22;33163;0.000;0.000;2023-04-09T04:52:34;18.70;53.70
47414;DHT22;33163;0.000;0.000;2023-04-09T04:55:01;18.70;53.70
47414;DHT22;33163;0.000;0.000;2023-04-09T04:57:28;18.70;53.70
47414;DHT22;33163;0.000;0.000;2023-04-09T04:59:55;18.70;53.70
47414;DHT22;33163;0.000;0.000;2023-04-09T05:02:21;18.70;53.70
47414;DHT22;33163;0.000;0.000;2023-04-09T05:04:48;18.70;53.80
47414;DHT22;33163;0.000;0.000;2023-04-09T05:07:16;18.70;53.80
47414;DHT22;33163;0.000;0.000;2023-04-09T05:09:43;18.70;53.80
47414;DHT22;33163;0.000;0.000;2023-04-09T05:12:10;18.70;53.80
47414;DHT22;33163;0.000;0.000;2023-04-09T05:14:36;18.70;53.80
47414;DHT22;33163;0.000;0.000;2023-04-09T05:17:03;18.70;53.90
47414;DHT22;33163;0.000;0.000;2023-04-09T05:19:30;18.70;53.90
47414;DHT22;33163;0.000;0.000;2023-04-09T05:21:57;18.70;53.90
47414;DHT22;33163;0.000;0.000;2023-04-09T05:24:25;18.70;54.00
47414;DHT22;33163;0.000;0.000;2023-04-09T05:26:52;18.70;54.00
47414;DHT22;33163;0.000;0.000;2023-04-09T05:29:18;18.70;54.60
47414;DHT22;33163;0.000;0.000;2023-04-09T05:31:45;18.70;54.00
47414;DHT22;33163;0.000;0.000;2023-04-09T05:34:12;18.60;54.00
47414;DHT22;33163;0.000;0.000;2023-04-09T05:36:39;18.70;54.10
47414;DHT22;33163;0.000;0.000;2023-04-09T05:39:05;18.60;54.00
47414;DHT22;33163;0.000;0.000;2023-04-09T05:41:33;18.60;54.00
47414;DHT22;33163;0.000;0.000;2023-04-09T05:44:01;18.60;54.10
47414;DHT22;33163;0.000;0.000;2023-04-09T05:46:28;18.60;54.10
47414;DHT22;33163;0.000;0.000;2023-04-09T05:48:55;18.60;54.20
47414;DHT22;33163;0.000;0.000;2023-04-09T05:51:22;18.60;54.20
47414;DHT22;33163;0.000;0.000;2023-04-09T05:53:49;18.60;54.20
47414;DHT22;33163;0.000;0.000;2023-04-09T05:56:16;18.60;54.20
47414;DHT22;33163;0.000;0.000;2023-04-09T05:58:44;18.60;54.20
47414;DHT22;33163;0.000;0.000;2023-04-09T06:01:12;18.60;54.20
47414;DHT22;33163;0.000;0.000;2023-04-09T06:03:39;18.60;54.30
47414;DHT22;33163;0.000;0.000;2023-04-09T06:06:06;18.60;54.30
47414;DHT22;33163;0.000;0.000;2023-04-09T06:08:32;18.60;54.30
47414;DHT22;33163;0.000;0.000;2023-04-09T06:10:59;18.60;54.40
47414;DHT22;33163;0.000;0.000;2023-04-09T06:13:26;18.60;54.40
47414;DHT22;33163;0.000;0.000;2023-04-09T06:15:54;18.60;54.40
47414;DHT22;33163;0.000;0.000;2023-04-09T06:18:21;18.60;54.40
47414;DHT22;33163;0.000;0.000;2023-04-09T06:20:47;18.60;54.50
47414;DHT22;33163;0.000;0.000;2023-04-09T06:23:14;18.60;54.50
47414;DHT22;33163;0.000;0.000;2023-04-09T06:25:41;18.60;54.50
47414;DHT22;33163;0.000;0.000;2023-04-09T06:28:08;18.60;54.60
47414;DHT22;33163;0.000;0.000;2023-04-09T06:30:35;18.60;54.60
47414;DHT22;33163;0.000;0.000;2023-04-09T06:33:03;18.60;54.60
47414;DHT22;33163;0.000;0.000;2023-04-09T06:35:30;18.60;54.60
47414;DHT22;33163;0.000;0.000;2023-04-09T06:38:00;18.60;54.70
47414;DHT22;33163;0.000;0.000;2023-04-09T06:40:26;18.60;54.70
47414;DHT22;33163;0.000;0.000;2023-04-09T06:42:53;18.60;54.70
47414;DHT22;33163;0.000;0.000;2023-04-09T06:45:20;18.60;54.80
47414;DHT22;33163;0.000;0.000;2023-04-09T06:47:47;18.60;54.70
47414;DHT22;33163;0.000;0.000;2023-04-09T06:50:15;18.60;54.80
47414;DHT22;33163;0.000;0.000;2023-04-09T06:52:42;18.60;54.80
47414;DHT22;33163;0.000;0.000;2023-04-09T06:55:09;18.60;54.80
47414;DHT22;33163;0.000;0.000;2023-04-09T06:57:35;18.60;54.90
47414;DHT22;33163;0.000;0.000;2023-04-09T07:00:04;18.60;54.90
47414;DHT22;33163;0.000;0.000;2023-04-09T07:02:31;18.60;54.90
47414;DHT22;33163;0.000;0.000;2023-04-09T07:04:58;18.60;55.00
47414;DHT22;33163;0.000;0.000;2023-04-09T07:07:26;18.60;55.00
47414;DHT22;33163;0.000;0.000;2023-04-09T07:09:53;18.60;55.00
47414;DHT22;33163;0.000;0.000;2023-04-09T07:12:25;18.60;55.00
47414;DHT22;33163;0.000;0.000;2023-04-09T07:14:55;18.60;55.00
47414;DHT22;33163;0.000;0.000;2023-04-09T07:17:22;18.60;55.00
47414;DHT22;33163;0.000;0.000;2023-04-09T07:19:49;18.60;55.20
47414;DHT22;33163;0.000;0.000;2023-04-09T07:22:16;18.60;55.30
47414;DHT22;33163;0.000;0.000;2023-04-09T07:24:44;18.60;55.30
47414;DHT22;33163;0.000;0.000;2023-04-09T07:27:11;18.60;55.60
47414;DHT22;33163;0.000;0.000;2023-04-09T07:29:38;18.50;55.60
47414;DHT22;33163;0.000;0.000;2023-04-09T07:32:05;18.60;56.00
47414;DHT22;33163;0.000;0.000;2023-04-09T07:34:31;18.60;56.20
47414;DHT22;33163;0.000;0.000;2023-04-09T07:36:58;18.60;56.40
47414;DHT22;33163;0.000;0.000;2023-04-09T07:39:25;18.60;56.50
47414;DHT22;33163;0.000;0.000;2023-04-09T07:41:53;18.60;56.30
47414;DHT22;33163;0.000;0.000;2023-04-09T07:44:20;18.50;56.60
47414;DHT22;33163;0.000;0.000;2023-04-09T07:46:47;18.60;56.70
47414;DHT22;33163;0.000;0.000;2023-04-09T07:49:14;18.50;56.90
47414;DHT22;33163;0.000;0.000;2023-04-09T07:51:41;18.60;56.70
47414;DHT22;33163;0.000;0.000;2023-04-09T07:54:08;18.60;56.70
47414;DHT22;33163;0.000;0.000;2023-04-09T07:56:35;18.50;57.10
47414;DHT22;33163;0.000;0.000;2023-04-09T07:59:03;18.50;57.00
47414;DHT22;33163;0.000;0.000;2023-04-09T08:01:30;18.50;57.10
47414;DHT22;33163;0.000;0.000;2023-04-09T08:03:56;18.50;57.10
47414;DHT22;33163;0.000;0.000;2023-04-09T08:06:23;18.50;57.30
47414;DHT22;33163;0.000;0.000;2023-04-09T08:08:50;18.50;57.20
47414;DHT22;33163;0.000;0.000;2023-04-09T08:11:17;18.50;57.20
47414;DHT22;33163;0.000;0.000;2023-04-09T08:13:49;18.50;57.20
47414;DHT22;33163;0.000;0.000;2023-04-09T08:16:17;18.50;57.10
47414;DHT22;33163;0.000;0.000;2023-04-09T08:18:45;18.50;57.10
47414;DHT22;33163;0.000;0.000;2023-04-09T08:21:12;18.50;57.20
47414;DHT22;33163;0.000;0.000;2023-04-09T08:23:39;18.50;57.20
47414;DHT22;33163;0.000;0.000;2023-04-09T08:26:06;18.50;57.20
47414;DHT22;33163;0.000;0.000;2023-04-09T08:28:32;18.50;57.20
47414;DHT22;33163;0.000;0.000;2023-04-09T08:30:59;18.50;57.00
47414;DHT22;33163;0.000;0.000;2023-04-09T08:33:27;18.50;57.00
47414;DHT22;33163;0.000;0.000;2023-04-09T08:35:55;18.50;57.10
47414;DHT22;33163;0.000;0.000;2023-04-09T08:38:22;18.50;57.00
47414;DHT22;33163;0.000;0.000;2023-04-09T08:40:48;18.50;57.00
47414;DHT22;33163;0.000;0.000;2023-04-09T08:43:15;18.50;57.00
47414;DHT22;33163;0.000;0.000;2023-04-09T08:45:44;18.50;56.80
47414;DHT22;33163;0.000;0.000;2023-04-09T08:48:12;18.50;56.70
47414;DHT22;33163;0.000;0.000;2023-04-09T08:50:41;18.50;56.70
47414;DHT22;33163;0.000;0.000;2023-04-09T08:53:11;18.40;56.60
47414;DHT22;33163;0.000;0.000;2023-04-09T08:55:39;18.40;56.50
47414;DHT22;33163;0.000;0.000;2023-04-09T08:58:06;18.40;56.60
47414;DHT22;33163;0.000;0.000;2023-04-09T09:00:34;18.50;56.50
47414;DHT22;33163;0.000;0.000;2023-04-09T09:03:01;18.50;56.20
47414;DHT22;33163;0.000;0.000;2023-04-09T09:05:39;18.50;56.20
47414;DHT22;33163;0.000;0.000;2023-04-09T09:08:08;18.60;56.10
47414;DHT22;33163;0.000;0.000;2023-04-09T09:10:39;18.60;56.20
47414;DHT22;33163;0.000;0.000;2023-04-09T09:13:16;18.50;56.10
47414;DHT22;33163;0.000;0.000;2023-04-09T09:15:44;18.60;56.20
47414;DHT22;33163;0.000;0.000;2023-04-09T09:18:14;18.60;56.10
47414;DHT22;33163;0.000;0.000;2023-04-09T09:20:41;18.60;56.10
47414;DHT22;33163;0.000;0.000;2023-04-09T09:23:09;18.60;56.00
47414;DHT22;33163;0.000;0.000;2023-04-09T09:25:37;18.60;56.10
47414;DHT22;33163;0.000;0.000;2023-04-09T09:28:07;18.60;56.20
47414;DHT22;33163;0.000;0.000;2023-04-09T09:30:35;18.60;56.30
47414;DHT22;33163;0.000;0.000;2023-04-09T09:33:05;18.60;56.20
47414;DHT22;33163;0.000;0.000;2023-04-09T09:35:46;18.60;56.10
47414;DHT22;33163;0.000;0.000;2023-04-09T09:38:15;18.60;56.30
47414;DHT22;33163;0.000;0.000;2023-04-09T09:40:42;18.60;56.60
47414;DHT22;33163;0.000;0.000;2023-04-09T09:43:08;18.60;56.70
47414;DHT22;33163;0.000;0.000;2023-04-09T09:45:35;18.60;56.80
47414;DHT22;33163;0.000;0.000;2023-04-09T09:48:04;18.60;57.20
47414;DHT22;33163;0.000;0.000;2023-04-09T09:50:31;18.60;57.40
47414;DHT22;33163;0.000;0.000;2023-04-09T09:53:02;18.60;57.40
47414;DHT22;33163;0.000;0.000;2023-04-09T09:55:32;18.60;57.80
47414;DHT22;33163;0.000;0.000;2023-04-09T09:58:01;18.60;57.90
47414;DHT22;33163;0.000;0.000;2023-04-09T10:00:31;18.60;57.90
47414;DHT22;33163;0.000;0.000;2023-04-09T10:03:02;18.60;58.00
47414;DHT22;33163;0.000;0.000;2023-04-09T10:05:33;18.60;58.10
47414;DHT22;33163;0.000;0.000;2023-04-09T10:08:01;18.60;58.10
47414;DHT22;33163;0.000;0.000;2023-04-09T10:10:31;18.60;59.20
47414;DHT22;33163;0.000;0.000;2023-04-09T10:12:59;18.60;58.50
47414;DHT22;33163;0.000;0.000;2023-04-09T10:15:27;18.60;58.70
47414;DHT22;33163;0.000;0.000;2023-04-09T10:17:55;18.60;58.80
47414;DHT22;33163;0.000;0.000;2023-04-09T10:20:26;18.60;59.00
47414;DHT22;33163;0.000;0.000;2023-04-09T10:22:55;18.60;58.90
47414;DHT22;33163;0.000;0.000;2023-04-09T10:25:23;18.50;59.00
47414;DHT22;33163;0.000;0.000;2023-04-09T10:28:00;18.60;59.30
47414;DHT22;33163;0.000;0.000;2023-04-09T10:30:30;18.60;59.50
47414;DHT22;33163;0.000;0.000;2023-04-09T10:33:08;18.60;59.50
47414;DHT22;33163;0.000;0.000;2023-04-09T10:35:34;18.60;59.60
47414;DHT22;33163;0.000;0.000;2023-04-09T10:38:01;18.60;59.60
47414;DHT22;33163;0.000;0.000;2023-04-09T10:40:28;18.60;59.40
47414;DHT22;33163;0.000;0.000;2023-04-09T10:42:55;18.60;59.30
47414;DHT22;33163;0.000;0.000;2023-04-09T10:45:24;18.60;59.20
47414;DHT22;33163;0.000;0.000;2023-04-09T10:48:04;18.60;59.20
47414;DHT22;33163;0.000;0.000;2023-04-09T10:50:31;18.60;59.10
47414;DHT22;33163;0.000;0.000;2023-04-09T10:53:02;18.60;59.00
47414;DHT22;33163;0.000;0.000;2023-04-09T10:55:32;18.60;58.90
47414;DHT22;33163;0.000;0.000;2023-04-09T10:57:59;18.60;58.80
47414;DHT22;33163;0.000;0.000;2023-04-09T11:00:27;18.60;58.70
47414;DHT22;33163;0.000;0.000;2023-04-09T11:03:18;18.70;58.70
47414;DHT22;33163;0.000;0.000;2023-04-09T11:05:47;18.60;58.60
47414;DHT22;33163;0.000;0.000;2023-04-09T11:08:15;18.70;58.60
47414;DHT22;33163;0.000;0.000;2023-04-09T11:10:44;18.70;58.40
47414;DHT22;33163;0.000;0.000;2023-04-09T11:13:12;18.80;58.50
47414;DHT22;33163;0.000;0.000;2023-04-09T11:15:41;18.80;58.50
47414;DHT22;33163;0.000;0.000;2023-04-09T11:18:08;18.80;58.30
47414;DHT22;33163;0.000;0.000;2023-04-09T11:20:35;18.80;58.30
47414;DHT22;33163;0.000;0.000;2023-04-09T11:23:02;18.80;58.30
47414;DHT22;33163;0.000;0.000;2023-04-09T11:25:31;18.80;58.40
47414;DHT22;33163;0.000;0.000;2023-04-09T11:27:58;18.80;58.40
47414;DHT22;33163;0.000;0.000;2023-04-09T11:30:25;18.80;58.30
47414;DHT22;33163;0.000;0.000;2023-04-09T11:32:54;18.80;58.20
47414;DHT22;33163;0.000;0.000;2023-04-09T11:35:21;18.90;58.20
47414;DHT22;33163;0.000;0.000;2023-04-09T11:37:49;18.90;58.20
47414;DHT22;33163;0.000;0.000;2023-04-09T11:40:18;19.00;58.10
47414;DHT22;33163;0.000;0.000;2023-04-09T11:42:47;19.00;58.10
47414;DHT22;33163;0.000;0.000;2023-04-09T11:45:15;19.00;58.10
47414;DHT22;33163;0.000;0.000;2023-04-09T11:47:42;19.10;58.10
47414;DHT22;33163;0.000;0.000;2023-04-09T11:50:12;19.10;58.00
47414;DHT22;33163;0.000;0.000;2023-04-09T11:52:39;19.20;58.00
47414;DHT22;33163;0.000;0.000;2023-04-09T11:55:08;19.10;57.90
47414;DHT22;33163;0.000;0.000;2023-04-09T11:57:39;19.20;57.80
47414;DHT22;33163;0.000;0.000;2023-04-09T12:00:08;19.20;57.80
47414;DHT22;33163;0.000;0.000;2023-04-09T12:02:37;19.30;57.80
47414;DHT22;33163;0.000;0.000;2023-04-09T12:05:06;19.30;57.80
47414;DHT22;33163;0.000;0.000;2023-04-09T12:07:34;19.30;57.70
47414;DHT22;33163;0.000;0.000;2023-04-09T12:10:03;19.40;57.70
47414;DHT22;33163;0.000;0.000;2023-04-09T12:12:30;19.40;57.70
47414;DHT22;33163;0.000;0.000;2023-04-09T12:14:57;19.40;57.70
47414;DHT22;33163;0.000;0.000;2023-04-09T12:17:24;19.40;57.70
47414;DHT22;33163;0.000;0.000;2023-04-09T12:19:51;19.50;57.70
47414;DHT22;33163;0.000;0.000;2023-04-09T12:22:18;19.40;57.60
47414;DHT22;33163;0.000;0.000;2023-04-09T12:24:46;19.50;57.60
47414;DHT22;33163;0.000;0.000;2023-04-09T12:27:13;19.50;57.70
47414;DHT22;33163;0.000;0.000;2023-04-09T12:29:40;19.40;57.60
47414;DHT22;33163;0.000;0.000;2023-04-09T12:32:07;19.50;57.60
47414;DHT22;33163;0.000;0.000;2023-04-09T12:34:33;19.50;57.60
47414;DHT22;33163;0.000;0.000;2023-04-09T12:37:00;19.50;57.60
47414;DHT22;33163;0.000;0.000;2023-04-09T12:39:27;19.50;57.60
47414;DHT22;33163;0.000;0.000;2023-04-09T12:41:55;19.50;57.60
47414;DHT22;33163;0.000;0.000;2023-04-09T12:44:22;19.40;57.50
47414;DHT22;33163;0.000;0.000;2023-04-09T12:46:48;19.50;57.60
47414;DHT22;33163;0.000;0.000;2023-04-09T12:49:15;19.50;57.60
47414;DHT22;33163;0.000;0.000;2023-04-09T12:51:42;19.50;57.60
47414;DHT22;33163;0.000;0.000;2023-04-09T12:54:09;19.50;57.40
47414;DHT22;33163;0.000;0.000;2023-04-09T12:56:36;19.50;57.50
47414;DHT22;33163;0.000;0.000;2023-04-09T12:59:04;19.50;57.40
47414;DHT22;33163;0.000;0.000;2023-04-09T13:01:31;19.50;57.30
47414;DHT22;33163;0.000;0.000;2023-04-09T13:03:58;19.60;57.40
47414;DHT22;33163;0.000;0.000;2023-04-09T13:06:25;19.60;57.30
47414;DHT22;33163;0.000;0.000;2023-04-09T13:08:52;19.60;57.30
47414;DHT22;33163;0.000;0.000;2023-04-09T13:11:18;19.60;57.30
47414;DHT22;33163;0.000;0.000;2023-04-09T13:13:45;19.60;57.30
47414;DHT22;33163;0.000;0.000;2023-04-09T13:16:15;19.50;57.30
47414;DHT22;33163;0.000;0.000;2023-04-09T13:18:42;19.50;57.30
47414;DHT22;33163;0.000;0.000;2023-04-09T13:21:09;19.50;57.40
47414;DHT22;33163;0.000;0.000;2023-04-09T13:23:37;19.40;57.30
47414;DHT22;33163;0.000;0.000;2023-04-09T13:26:04;19.40;57.30
47414;DHT22;33163;0.000;0.000;2023-04-09T13:28:31;19.40;57.30
47414;DHT22;33163;0.000;0.000;2023-04-09T13:30:57;19.40;57.30
47414;DHT22;33163;0.000;0.000;2023-04-09T13:33:25;19.40;57.30
47414;DHT22;33163;0.000;0.000;2023-04-09T13:35:52;19.40;57.30
47414;DHT22;33163;0.000;0.000;2023-04-09T13:38:19;19.40;57.30
47414;DHT22;33163;0.000;0.000;2023-04-09T13:40:46;19.30;57.30
47414;DHT22;33163;0.000;0.000;2023-04-09T13:43:13;19.30;57.30
47414;DHT22;33163;0.000;0.000;2023-04-09T13:45:40;19.30;57.30
47414;DHT22;33163;0.000;0.000;2023-04-09T13:48:06;19.30;57.30
47414;DHT22;33163;0.000;0.000;2023-04-09T13:50:34;19.30;57.30
47414;DHT22;33163;0.000;0.000;2023-04-09T13:53:01;19.30;57.20
47414;DHT22;33163;0.000;0.000;2023-04-09T13:55:29;19.30;57.40
47414;DHT22;33163;0.000;0.000;2023-04-09T13:57:56;19.30;57.20
47414;DHT22;33163;0.000;0.000;2023-04-09T14:00:23;19.30;57.20
47414;DHT22;33163;0.000;0.000;2023-04-09T14:02:49;19.30;57.20
47414;DHT22;33163;0.000;0.000;2023-04-09T14:05:16;19.30;57.20
47414;DHT22;33163;0.000;0.000;2023-04-09T14:07:44;19.30;57.10
47414;DHT22;33163;0.000;0.000;2023-04-09T14:10:11;19.30;57.10
47414;DHT22;33163;0.000;0.000;2023-04-09T14:12:38;19.30;57.20
47414;DHT22;33163;0.000;0.000;2023-04-09T14:15:05;19.30;57.20
47414;DHT22;33163;0.000;0.000;2023-04-09T14:17:33;19.30;57.10
47414;DHT22;33163;0.000;0.000;2023-04-09T14:19:59;19.30;57.20
47414;DHT22;33163;0.000;0.000;2023-04-09T14:22:28;19.30;57.20
47414;DHT22;33163;0.000;0.000;2023-04-09T14:24:57;19.30;57.10
47414;DHT22;33163;0.000;0.000;2023-04-09T14:27:23;19.30;57.10
47414;DHT22;33163;0.000;0.000;2023-04-09T14:29:51;19.30;57.10
47414;DHT22;33163;0.000;0.000;2023-04-09T14:32:18;19.40;57.10
47414;DHT22;33163;0.000;0.000;2023-04-09T14:34:44;19.30;57.00
47414;DHT22;33163;0.000;0.000;2023-04-09T14:37:11;19.30;57.00
47414;DHT22;33163;0.000;0.000;2023-04-09T14:39:38;19.30;57.00
47414;DHT22;33163;0.000;0.000;2023-04-09T14:42:06;19.30;57.00
47414;DHT22;33163;0.000;0.000;2023-04-09T14:44:33;19.30;57.00
47414;DHT22;33163;0.000;0.000;2023-04-09T14:46:59;19.30;57.00
47414;DHT22;33163;0.000;0.000;2023-04-09T14:49:26;19.30;57.70
47414;DHT22;33163;0.000;0.000;2023-04-09T14:51:53;19.30;58.00
47414;DHT22;33163;0.000;0.000;2023-04-09T14:54:19;19.30;58.00
47414;DHT22;33163;0.000;0.000;2023-04-09T14:56:46;19.30;57.70
47414;DHT22;33163;0.000;0.000;2023-04-09T14:59:14;19.30;57.10
47414;DHT22;33163;0.000;0.000;2023-04-09T15:01:41;19.20;57.30
47414;DHT22;33163;0.000;0.000;2023-04-09T15:04:08;19.30;57.30
47414;DHT22;33163;0.000;0.000;2023-04-09T15:06:35;19.30;57.10
47414;DHT22;33163;0.000;0.000;2023-04-09T15:09:01;19.30;57.00
47414;DHT22;33163;0.000;0.000;2023-04-09T15:11:28;19.30;57.10
47414;DHT22;33163;0.000;0.000;2023-04-09T15:13:55;19.30;57.00
47414;DHT22;33163;0.000;0.000;2023-04-09T15:16:26;19.30;57.40
47414;DHT22;33163;0.000;0.000;2023-04-09T15:18:53;19.30;58.20
47414;DHT22;33163;0.000;0.000;2023-04-09T15:21:23;19.40;57.80
47414;DHT22;33163;0.000;0.000;2023-04-09T15:23:51;19.40;57.90
47414;DHT22;33163;0.000;0.000;2023-04-09T15:26:18;19.40;57.80
47414;DHT22;33163;0.000;0.000;2023-04-09T15:28:45;19.40;58.00
47414;DHT22;33163;0.000;0.000;2023-04-09T15:31:12;19.40;58.10
47414;DHT22;33163;0.000;0.000;2023-04-09T15:33:41;19.40;58.00
47414;DHT22;33163;0.000;0.000;2023-04-09T15:36:09;19.40;58.70
47414;DHT22;33163;0.000;0.000;2023-04-09T15:38:36;19.40;58.90
47414;DHT22;33163;0.000;0.000;2023-04-09T15:41:04;19.40;59.80
47414;DHT22;33163;0.000;0.000;2023-04-09T15:43:31;19.50;60.40
47414;DHT22;33163;0.000;0.000;2023-04-09T15:45:58;19.50;60.60
47414;DHT22;33163;0.000;0.000;2023-04-09T15:48:33;19.50;61.60